首页
METAR-TAF:

METAR-TAF

机场 :

Wick, 苏格兰

纬度: 58-27N, 经度: 003-05W, 海拔: 39米

当前天气观测

该预报发布于22分钟前的08:50 UTC
风速20节,风向西转西北,有时为30节阵风
温度 3°C
湿度 87%
气压 1015 hPa
能见度10公里或以上

METAR: EGPC 180850Z AUTO 30020G30KT 9999 SCT005/// BKN030/// BKN041/// 03/01 Q1015 RERA

时间: 09:12 (09:12 UTC)

预报

该预报发布于23分钟前的08:49 UTC
预报有效从18日的 09点(UTC)到 18日的 18点(UTC)
风速14节,风向西
能见度10公里或以上
少量云层高于3000英尺
几率 40% :
短暂存在
从 18日的 09点(UTC)到 18日的 12点(UTC)
风速28节,风向西转西北,有时为38节阵风
能見度: 4000
多云层高于1400英尺
阵雨
几率 30% :
短暂存在
从 18日的 12点(UTC)到 18日的 18点(UTC)
风速15节,风向西转西北,有时为25节阵风
能見度: 6000
阵雨

TAF: EGPC 180849Z 1809/1818 28014KT 9999 FEW030 PROB40 TEMPO 1809/1812 30028G38KT 4000 SHRA BKN014 PROB30 TEMPO 1812/1818 29015G25KT 6000 SHRA

超过4000个机场的气象观测和天气预报(METAR&TAF报告)。

可查询的气象台以黄色和红色小点在地图上表示。

将鼠标移到小点上方,可查看气象台名称。

然后点击查看天气观测和预报。

如需切换地图:点击带黑十字的绿色按钮放大地图;点击带横线的绿色按钮缩小地图;或者点击绿色箭头查看邻近地区的地图。


METAR-TAF: